Time;durP1;ratioP1;P1;durP2;ratioP2;P2;SDS_P1;SDS_P2;PMS_P1;PMS_P2;Temp;Humidity;BMP_temperature;BMP_pressure;BME280_temperature;BME280_humidity;BME280_pressure;Samples;Min_cycle;Max_cycle;Signal;HPM_P1;HPM_P2
2021/12/16 00:10:20;;;;;;;22.15;14.10;;;7.60;99.90;;;;;;5046643;28;20217;-73
2021/12/16 00:19:46;;;;;;;19.38;13.48;;;7.70;99.90;;;;;;5049161;28;20771;-73
2021/12/16 00:31:59;;;;;;;19.87;15.17;;;7.70;99.90;;;;;;5050129;28;20738;-73
2021/12/16 00:34:45;;;;;;;18.95;13.90;;;7.70;99.90;;;;;;5051111;28;20537;-73
2021/12/16 00:37:31;;;;;;;19.80;14.23;;;7.60;99.90;;;;;;5049641;28;20708;-73
2021/12/16 00:40:17;;;;;;;23.60;14.57;;;7.70;99.90;;;;;;5048882;28;20436;-73
2021/12/16 00:43:13;;;;;;;19.83;14.70;;;7.60;99.90;;;;;;5048575;28;20467;-73
2021/12/16 00:46:12;;;;;;;19.83;13.52;;;7.70;99.90;;;;;;5049820;28;20553;-73
2021/12/16 00:49:18;;;;;;;20.87;13.03;;;7.60;99.90;;;;;;5046322;28;20205;-73
2021/12/16 00:55:24;;;;;;;17.98;13.30;;;7.60;99.90;;;;;;5051916;28;20578;-73
2021/12/16 00:58:11;;;;;;;16.70;12.27;;;7.60;99.90;;;;;;5048837;28;20232;-73
2021/12/16 01:01:05;;;;;;;17.43;12.90;;;7.70;99.90;;;;;;5049490;28;20267;-73
2021/12/16 01:04:09;;;;;;;18.03;11.77;;;7.70;99.90;;;;;;5051582;28;20475;-73
2021/12/16 01:07:12;;;;;;;20.75;13.50;;;7.60;99.90;;;;;;5047848;28;20467;-73
2021/12/16 01:34:44;;;;;;;17.73;14.05;;;7.40;99.90;;;;;;5044428;28;20200;-73
2021/12/16 01:41:15;;;;;;;16.63;12.33;;;7.50;99.90;;;;;;5047710;28;20747;-74
2021/12/16 01:47:21;;;;;;;18.50;12.77;;;7.60;99.90;;;;;;5044369;28;20208;-73
2021/12/16 01:50:15;;;;;;;16.70;12.95;;;7.50;99.90;;;;;;5047676;28;20250;-73
2021/12/16 01:56:20;;;;;;;18.92;12.10;;;7.60;99.90;;;;;;5045786;28;20751;-73
2021/12/16 01:59:09;;;;;;;19.05;13.88;;;7.60;99.90;;;;;;5052887;22;20338;-73
2021/12/16 02:02:03;;;;;;;19.80;13.27;;;7.60;99.90;;;;;;5042792;28;20725;-73
2021/12/16 02:05:10;;;;;;;17.20;12.80;;;7.60;99.90;;;;;;5043455;28;20233;-73
2021/12/16 02:11:27;;;;;;;19.85;13.13;;;7.50;99.90;;;;;;5045420;28;20263;-73
2021/12/16 02:29:47;;;;;;;16.50;12.88;;;7.50;99.90;;;;;;5044977;28;20196;-73
2021/12/16 02:32:45;;;;;;;16.30;12.25;;;7.50;99.90;;;;;;5042619;28;20657;-73
2021/12/16 02:35:35;;;;;;;19.02;14.15;;;7.50;99.90;;;;;;5042271;28;20635;-73
2021/12/16 02:38:22;;;;;;;27.10;14.38;;;7.50;99.90;;;;;;5043595;28;20221;-73
2021/12/16 02:41:08;;;;;;;20.10;13.90;;;7.40;99.90;;;;;;5043198;28;20220;-73
2021/12/16 02:50:00;;;;;;;21.92;14.52;;;7.30;99.90;;;;;;5041654;28;20639;-73
2021/12/16 02:52:48;;;;;;;18.83;13.18;;;7.40;99.90;;;;;;5040648;28;20291;-73
2021/12/16 02:55:34;;;;;;;24.13;12.60;;;7.40;99.90;;;;;;5039902;28;20693;-73
2021/12/16 02:58:20;;;;;;;17.30;12.50;;;7.40;99.90;;;;;;5042571;28;20229;-73
2021/12/16 03:01:10;;;;;;;19.25;14.75;;;7.50;99.90;;;;;;5044529;28;20256;-74
2021/12/16 03:03:57;;;;;;;17.98;13.30;;;7.50;99.90;;;;;;5043146;28;20296;-73
2021/12/16 03:06:44;;;;;;;18.85;13.70;;;7.40;99.90;;;;;;5044364;28;20213;-73
2021/12/16 03:12:56;;;;;;;17.45;12.82;;;7.40;99.90;;;;;;5040659;28;20225;-73
2021/12/16 03:16:01;;;;;;;19.63;14.15;;;7.30;99.90;;;;;;5041295;28;20204;-73
2021/12/16 03:18:48;;;;;;;19.00;12.73;;;7.30;99.90;;;;;;5044917;28;20312;-73
2021/12/16 03:21:40;;;;;;;22.02;15.18;;;7.30;99.90;;;;;;5041064;28;20212;-73
2021/12/16 03:24:44;;;;;;;18.60;13.20;;;7.30;99.90;;;;;;5038286;28;20264;-73
2021/12/16 03:27:58;;;;;;;18.98;13.73;;;7.30;99.90;;;;;;5042454;28;20220;-73
2021/12/16 03:30:59;;;;;;;19.63;14.25;;;7.30;99.90;;;;;;5040194;28;20208;-73
2021/12/16 03:34:08;;;;;;;26.17;13.05;;;7.20;99.90;;;;;;5041301;28;20293;-73
2021/12/16 03:37:14;;;;;;;19.98;13.70;;;7.20;99.90;;;;;;5042400;28;20213;-73
2021/12/16 03:40:05;;;;;;;19.35;12.43;;;7.30;99.90;;;;;;5043389;28;20681;-73
2021/12/16 03:42:56;;;;;;;20.08;14.00;;;7.30;99.90;;;;;;5044047;28;20478;-73
2021/12/16 03:48:51;;;;;;;16.65;11.57;;;7.40;99.90;;;;;;5037134;28;20248;-73
2021/12/16 03:51:40;;;;;;;19.88;13.88;;;7.40;99.90;;;;;;5041863;28;20208;-73
2021/12/16 03:54:30;;;;;;;19.73;13.40;;;7.30;99.90;;;;;;5039718;28;20602;-73
2021/12/16 03:57:17;;;;;;;17.83;12.93;;;7.30;99.90;;;;;;5040958;28;20227;-73
2021/12/16 04:00:06;;;;;;;20.25;13.75;;;7.30;99.90;;;;;;5041364;28;20209;-73
2021/12/16 04:02:52;;;;;;;21.77;13.40;;;7.40;99.90;;;;;;5043907;28;20591;-73
2021/12/16 04:05:39;;;;;;;24.17;14.63;;;7.30;99.90;;;;;;5042419;28;20333;-73
2021/12/16 04:08:25;;;;;;;18.45;12.80;;;7.30;99.90;;;;;;5041316;28;20232;-73
2021/12/16 04:11:18;;;;;;;17.65;13.30;;;7.30;99.90;;;;;;5038319;28;20216;-73
2021/12/16 04:14:04;;;;;;;21.17;13.73;;;7.40;99.90;;;;;;5040843;28;20272;-73
2021/12/16 04:16:53;;;;;;;17.45;13.00;;;7.40;99.90;;;;;;5042566;28;20574;-73
2021/12/16 04:19:39;;;;;;;18.05;12.32;;;7.40;99.90;;;;;;5044441;28;20673;-73
2021/12/16 04:22:36;;;;;;;22.13;13.60;;;7.40;99.90;;;;;;5041094;28;20205;-73
2021/12/16 04:25:24;;;;;;;19.10;12.30;;;7.40;99.90;;;;;;5037445;28;20271;-73
2021/12/16 04:28:15;;;;;;;18.23;13.50;;;7.30;99.90;;;;;;5044397;28;20244;-73
2021/12/16 04:31:01;;;;;;;18.25;13.15;;;7.30;99.90;;;;;;5043542;28;20208;-73
2021/12/16 04:33:49;;;;;;;18.95;14.13;;;7.30;99.90;;;;;;5038258;28;20205;-73
2021/12/16 04:36:36;;;;;;;17.98;12.70;;;7.30;99.90;;;;;;5042028;28;20343;-73
2021/12/16 04:39:25;;;;;;;21.02;14.32;;;7.30;99.90;;;;;;5040010;28;20244;-73
2021/12/16 04:42:13;;;;;;;17.88;12.60;;;7.30;99.90;;;;;;5041408;28;20205;-73
2021/12/16 04:44:58;;;;;;;16.10;12.75;;;7.20;99.90;;;;;;5042270;28;20763;-73
2021/12/16 04:47:44;;;;;;;18.38;12.48;;;7.10;99.90;;;;;;5044912;28;20302;-73
2021/12/16 04:50:32;;;;;;;17.38;10.55;;;7.10;99.90;;;;;;5038694;28;20568;-73
2021/12/16 04:53:18;;;;;;;18.80;12.50;;;7.10;99.90;;;;;;5038144;28;20636;-73
2021/12/16 04:56:05;;;;;;;20.50;13.27;;;7.10;99.90;;;;;;5042374;28;20594;-73
2021/12/16 04:58:53;;;;;;;18.38;13.45;;;7.10;99.90;;;;;;5040495;28;20335;-73
2021/12/16 05:01:43;;;;;;;19.93;13.30;;;7.10;99.90;;;;;;5042328;28;20205;-73
2021/12/16 05:04:28;;;;;;;31.08;13.25;;;7.10;99.90;;;;;;5043360;28;20446;-73
2021/12/16 05:07:16;;;;;;;17.55;13.20;;;7.10;99.90;;;;;;5045473;28;20286;-73
2021/12/16 05:10:05;;;;;;;17.70;13.15;;;7.20;99.90;;;;;;5043251;28;20217;-73
2021/12/16 05:12:55;;;;;;;17.67;12.65;;;7.20;99.90;;;;;;5042797;28;20212;-73
2021/12/16 05:15:42;;;;;;;18.25;12.05;;;7.20;99.90;;;;;;5047117;28;20193;-73
2021/12/16 05:18:32;;;;;;;17.17;13.20;;;7.20;99.90;;;;;;5044763;28;20714;-73
2021/12/16 05:21:41;;;;;;;18.00;12.13;;;7.20;99.90;;;;;;5043512;28;20205;-73
2021/12/16 05:24:27;;;;;;;20.98;13.75;;;7.20;99.90;;;;;;5044429;28;20225;-73
2021/12/16 05:27:13;;;;;;;19.15;12.93;;;7.20;99.90;;;;;;5045707;28;20208;-73
2021/12/16 05:29:58;;;;;;;15.35;11.70;;;7.10;99.90;;;;;;5044442;28;20205;-74
2021/12/16 05:32:45;;;;;;;19.48;13.55;;;7.10;99.90;;;;;;5043548;28;20222;-73
2021/12/16 05:35:33;;;;;;;18.00;13.30;;;7.20;99.90;;;;;;5043664;28;20205;-73
2021/12/16 05:38:19;;;;;;;16.60;12.27;;;7.20;99.90;;;;;;5046288;28;20242;-73
2021/12/16 05:41:10;;;;;;;21.67;13.40;;;7.20;99.90;;;;;;5043654;28;20306;-73
2021/12/16 05:43:57;;;;;;;24.05;12.50;;;7.20;99.90;;;;;;5044298;28;20336;-73
2021/12/16 05:46:43;;;;;;;18.25;12.23;;;7.30;99.90;;;;;;5044835;28;20290;-73
2021/12/16 05:49:29;;;;;;;17.88;13.02;;;7.30;99.90;;;;;;5046639;28;20208;-73
2021/12/16 05:52:15;;;;;;;17.55;12.68;;;7.30;99.90;;;;;;5040079;28;20200;-73
2021/12/16 05:55:01;;;;;;;18.70;12.70;;;7.20;99.90;;;;;;5045114;28;20268;-73
2021/12/16 05:57:50;;;;;;;24.73;12.90;;;7.20;99.90;;;;;;5042129;28;20241;-73
2021/12/16 06:00:40;;;;;;;17.63;12.60;;;7.20;99.90;;;;;;5042707;28;20205;-73
2021/12/16 06:03:27;;;;;;;18.98;12.30;;;7.20;99.90;;;;;;5042086;28;20584;-74
2021/12/16 06:06:13;;;;;;;25.58;13.73;;;7.20;99.90;;;;;;5043866;28;20632;-74
2021/12/16 06:09:00;;;;;;;17.50;12.57;;;7.10;99.90;;;;;;5043275;28;20767;-73
2021/12/16 06:11:47;;;;;;;23.38;15.15;;;7.20;99.90;;;;;;5039627;28;20217;-73
2021/12/16 06:14:49;;;;;;;22.75;13.65;;;7.20;99.90;;;;;;5041963;28;20201;-73
2021/12/16 06:26:54;;;;;;;20.98;13.32;;;7.30;99.90;;;;;;5028068;28;20244;-74
2021/12/16 06:29:44;;;;;;;18.50;13.68;;;7.30;99.90;;;;;;5040856;28;20403;-73
2021/12/16 06:32:30;;;;;;;21.30;13.38;;;7.30;99.90;;;;;;5042426;28;20713;-73
2021/12/16 06:35:17;;;;;;;18.98;12.88;;;7.30;99.90;;;;;;5041897;28;20293;-73
2021/12/16 06:38:03;;;;;;;25.23;15.15;;;7.30;99.90;;;;;;5044792;28;20636;-73
2021/12/16 06:40:49;;;;;;;20.30;13.55;;;7.30;99.90;;;;;;5040149;28;20209;-73
2021/12/16 06:43:36;;;;;;;19.58;13.00;;;7.30;99.90;;;;;;5040539;28;20200;-73
2021/12/16 06:46:31;;;;;;;20.77;13.20;;;7.40;99.90;;;;;;5042642;28;20278;-73
2021/12/16 06:49:19;;;;;;;19.50;14.10;;;7.40;99.90;;;;;;5038097;28;20579;-73
2021/12/16 06:52:07;;;;;;;21.17;14.60;;;7.40;99.90;;;;;;5039962;28;20216;-73
2021/12/16 06:55:04;;;;;;;20.25;12.85;;;7.40;99.90;;;;;;5042717;28;21007;-73
2021/12/16 06:57:55;;;;;;;19.52;13.18;;;7.40;99.90;;;;;;5045667;28;20241;-73
2021/12/16 07:00:45;;;;;;;18.23;11.85;;;7.30;99.90;;;;;;5044986;28;20201;-73
2021/12/16 07:03:44;;;;;;;16.20;12.75;;;7.20;99.90;;;;;;5039376;28;20271;-73
2021/12/16 07:06:32;;;;;;;17.27;12.27;;;7.10;99.90;;;;;;5042272;28;20213;-74
2021/12/16 07:09:20;;;;;;;28.10;13.38;;;7.10;99.90;;;;;;5042330;28;20222;-73
2021/12/16 07:12:09;;;;;;;16.92;12.70;;;7.20;99.90;;;;;;5041350;28;20340;-74
2021/12/16 07:14:55;;;;;;;19.55;14.77;;;7.20;99.90;;;;;;5044636;28;20200;-74
2021/12/16 07:17:42;;;;;;;22.15;15.20;;;7.10;99.90;;;;;;5045249;28;20216;-74
2021/12/16 07:20:32;;;;;;;22.30;15.02;;;7.20;99.90;;;;;;5042386;28;20204;-74
2021/12/16 07:23:18;;;;;;;19.83;13.98;;;7.20;99.90;;;;;;5041721;28;20397;-74
2021/12/16 07:26:04;;;;;;;31.50;15.25;;;7.10;99.90;;;;;;5044197;28;20212;-72
2021/12/16 07:28:50;;;;;;;23.75;13.38;;;7.20;99.90;;;;;;5048829;28;20273;-71
2021/12/16 07:31:38;;;;;;;18.75;14.30;;;7.20;99.90;;;;;;5047016;28;20209;-71
2021/12/16 07:34:24;;;;;;;20.08;14.77;;;7.30;99.90;;;;;;5047846;28;20224;-71
2021/12/16 07:37:11;;;;;;;16.52;11.80;;;7.20;99.90;;;;;;5050057;28;20204;-71
2021/12/16 07:39:56;;;;;;;26.83;16.65;;;7.20;99.90;;;;;;5051485;28;20287;-71
2021/12/16 07:42:47;;;;;;;45.20;27.92;;;7.10;99.90;;;;;;5049714;28;20737;-71
2021/12/16 07:45:35;;;;;;;38.03;21.10;;;7.20;99.90;;;;;;5048572;28;20227;-71
2021/12/16 07:48:21;;;;;;;27.20;17.58;;;7.20;99.90;;;;;;5051625;28;20459;-71
2021/12/16 07:51:08;;;;;;;42.38;22.92;;;7.20;99.90;;;;;;5046807;28;20325;-71
2021/12/16 07:53:55;;;;;;;21.57;15.33;;;7.30;99.90;;;;;;5051188;28;20201;-71
2021/12/16 07:56:42;;;;;;;25.50;17.02;;;7.30;99.90;;;;;;5047048;28;20434;-71
2021/12/16 07:59:30;;;;;;;29.85;18.98;;;7.30;99.90;;;;;;5049867;28;20224;-71
2021/12/16 08:02:15;;;;;;;21.13;13.60;;;7.30;99.90;;;;;;5044559;28;20240;-71
2021/12/16 08:05:02;;;;;;;20.25;14.48;;;7.40;99.90;;;;;;5051586;28;20224;-71
2021/12/16 08:07:48;;;;;;;21.77;13.00;;;7.30;99.90;;;;;;5049176;28;20228;-71
2021/12/16 08:10:37;;;;;;;16.48;11.90;;;7.40;99.90;;;;;;5044642;28;20666;-73
2021/12/16 08:13:22;;;;;;;18.70;13.40;;;7.50;99.90;;;;;;5051109;28;20209;-74
2021/12/16 08:16:08;;;;;;;20.60;13.67;;;7.50;99.90;;;;;;5051765;28;20197;-73
2021/12/16 08:18:55;;;;;;;18.20;12.27;;;7.50;99.90;;;;;;5055538;28;20982;-73
2021/12/16 08:21:40;;;;;;;18.63;12.27;;;7.60;99.90;;;;;;5057067;28;20204;-73
2021/12/16 08:24:26;;;;;;;21.93;13.70;;;7.60;99.90;;;;;;5049207;28;20688;-71
2021/12/16 08:27:14;;;;;;;19.75;13.35;;;7.60;99.90;;;;;;5056744;28;20442;-74
2021/12/16 08:30:00;;;;;;;27.63;16.77;;;7.60;99.90;;;;;;5048406;28;20202;-73
2021/12/16 08:32:46;;;;;;;20.38;14.95;;;7.50;99.90;;;;;;5031285;28;20205;-73
2021/12/16 08:35:32;;;;;;;22.98;16.08;;;7.50;99.90;;;;;;5031410;28;20201;-74
2021/12/16 08:38:22;;;;;;;24.75;16.05;;;7.60;99.90;;;;;;5035698;28;20702;-74
2021/12/16 08:41:10;;;;;;;22.42;15.45;;;7.60;99.90;;;;;;5037663;28;20679;-73
2021/12/16 08:43:58;;;;;;;20.15;15.23;;;7.60;99.90;;;;;;5035191;28;20197;-73
2021/12/16 08:46:50;;;;;;;21.35;15.55;;;7.60;99.90;;;;;;5035361;28;20248;-73
2021/12/16 08:49:35;;;;;;;21.65;15.55;;;7.60;99.90;;;;;;5037554;28;20201;-73
2021/12/16 08:52:23;;;;;;;24.27;15.90;;;7.60;99.90;;;;;;5034935;28;20679;-73
2021/12/16 08:55:09;;;;;;;21.25;15.65;;;7.70;99.90;;;;;;5035363;28;20391;-73
2021/12/16 08:57:56;;;;;;;20.52;13.77;;;7.70;99.90;;;;;;5059012;28;20232;-73
2021/12/16 09:00:46;;;;;;;22.73;15.90;;;7.80;99.90;;;;;;5042674;28;20213;-73
2021/12/16 09:03:32;;;;;;;25.25;16.20;;;7.80;99.90;;;;;;5035112;28;20202;-73
2021/12/16 09:06:18;;;;;;;20.00;14.63;;;7.80;99.90;;;;;;5035549;28;20690;-73
2021/12/16 09:09:06;;;;;;;20.88;13.88;;;7.90;99.90;;;;;;5034852;28;20655;-73
2021/12/16 09:12:06;;;;;;;26.98;16.23;;;7.90;99.90;;;;;;5035058;28;20248;-73
2021/12/16 09:14:52;;;;;;;24.37;15.40;;;7.90;99.90;;;;;;5035109;28;20272;-73
2021/12/16 09:17:39;;;;;;;24.38;16.67;;;7.90;99.90;;;;;;5034752;28;21084;-73
2021/12/16 09:20:25;;;;;;;21.03;15.83;;;8.00;99.90;;;;;;5036916;28;20209;-73
2021/12/16 09:23:12;;;;;;;23.25;15.55;;;8.00;99.90;;;;;;5034464;28;20898;-73
2021/12/16 09:25:59;;;;;;;24.65;14.20;;;8.10;99.90;;;;;;5038656;28;20357;-73
2021/12/16 09:28:45;;;;;;;20.45;15.13;;;8.10;99.90;;;;;;5054242;28;20225;-73
2021/12/16 09:31:31;;;;;;;22.10;15.40;;;8.20;99.90;;;;;;5034953;28;20208;-73
2021/12/16 09:34:18;;;;;;;31.03;16.80;;;8.20;99.90;;;;;;5032929;28;20210;-73
2021/12/16 09:37:05;;;;;;;23.73;16.50;;;8.30;99.90;;;;;;5034544;28;20508;-73
2021/12/16 09:39:50;;;;;;;24.08;17.13;;;8.30;99.90;;;;;;5036509;28;20845;-74
2021/12/16 09:42:37;;;;;;;25.75;16.85;;;8.40;99.90;;;;;;5034439;28;20205;-73
2021/12/16 09:45:23;;;;;;;28.00;17.23;;;8.40;99.90;;;;;;5034342;28;20244;-73
2021/12/16 09:48:08;;;;;;;25.53;18.13;;;8.50;99.90;;;;;;5033652;28;20532;-74
2021/12/16 09:50:55;;;;;;;30.17;18.45;;;8.60;99.90;;;;;;5052231;28;20442;-73
2021/12/16 09:53:41;;;;;;;21.57;15.40;;;8.60;99.90;;;;;;5053967;28;20200;-73
2021/12/16 09:56:28;;;;;;;31.63;17.07;;;8.70;99.90;;;;;;5060168;28;20467;-74
2021/12/16 09:59:16;;;;;;;26.70;16.60;;;8.70;99.90;;;;;;5047970;28;20491;-73
2021/12/16 10:02:04;;;;;;;27.07;16.50;;;8.80;99.90;;;;;;5034096;28;20280;-73
2021/12/16 10:04:51;;;;;;;23.60;15.50;;;8.70;99.90;;;;;;5034046;28;20569;-73
2021/12/16 10:07:38;;;;;;;21.60;14.40;;;8.80;99.90;;;;;;5033866;28;20225;-74
2021/12/16 10:10:27;;;;;;;21.73;15.07;;;8.80;99.90;;;;;;5036036;28;20452;-73
2021/12/16 10:13:19;;;;;;;24.03;14.90;;;8.80;99.90;;;;;;5033495;28;20482;-74
2021/12/16 10:19:09;;;;;;;19.80;15.00;;;8.80;99.90;;;;;;5050128;28;20503;-73
2021/12/16 10:21:55;;;;;;;28.00;16.90;;;8.90;99.90;;;;;;5042563;28;20808;-74
2021/12/16 10:24:42;;;;;;;21.80;16.10;;;8.90;99.90;;;;;;5044326;28;20590;-73
2021/12/16 10:27:30;;;;;;;29.90;15.70;;;9.00;99.90;;;;;;5048137;28;20464;-74
2021/12/16 10:30:16;;;;;;;22.47;15.70;;;9.00;99.90;;;;;;5050477;28;20620;-74
2021/12/16 10:33:12;;;;;;;23.53;15.47;;;9.00;99.90;;;;;;5046678;28;20799;-73
2021/12/16 10:36:09;;;;;;;22.37;14.40;;;9.10;99.90;;;;;;5047371;28;20407;-73
2021/12/16 10:38:59;;;;;;;19.60;13.43;;;9.30;99.90;;;;;;5041075;28;20517;-73
2021/12/16 10:41:50;;;;;;;26.03;17.13;;;9.50;99.90;;;;;;5036656;28;20537;-73
2021/12/16 10:44:38;;;;;;;19.57;14.63;;;9.70;99.90;;;;;;5051133;28;20536;-73
2021/12/16 10:47:24;;;;;;;20.45;14.20;;;9.70;99.90;;;;;;5052277;28;20501;-72
2021/12/16 10:50:15;;;;;;;22.90;14.23;;;9.80;99.90;;;;;;5048157;28;20224;-73
2021/12/16 10:53:00;;;;;;;24.73;15.00;;;9.90;99.90;;;;;;5044506;28;20417;-72
2021/12/16 10:55:57;;;;;;;20.20;13.27;;;10.10;99.90;;;;;;5050682;28;20410;-73
2021/12/16 10:58:55;;;;;;;15.60;11.33;;;10.70;99.90;;;;;;5050961;28;20487;-73
2021/12/16 11:02:09;;;;;;;15.63;12.17;;;10.90;99.90;;;;;;5050590;28;20455;-73
2021/12/16 11:05:00;;;;;;;14.80;11.30;;;10.80;99.90;;;;;;5042811;28;20444;-73
2021/12/16 11:07:47;;;;;;;15.80;10.63;;;10.70;99.90;;;;;;5050241;28;21272;-73
2021/12/16 11:10:35;;;;;;;14.97;10.90;;;10.60;99.90;;;;;;5047625;28;20459;-73
2021/12/16 11:13:21;;;;;;;13.70;9.70;;;10.80;99.90;;;;;;5052158;28;20463;-73
2021/12/16 11:16:08;;;;;;;16.50;10.00;;;11.00;99.90;;;;;;5032915;28;20487;-73
2021/12/16 11:18:53;;;;;;;11.30;9.00;;;11.00;99.90;;;;;;5048726;28;20463;-73
2021/12/16 11:21:40;;;;;;;10.73;8.00;;;10.80;99.90;;;;;;5051973;28;20476;-73
2021/12/16 11:24:27;;;;;;;9.60;7.67;;;10.70;99.90;;;;;;5049809;28;20521;-73
2021/12/16 11:27:32;;;;;;;12.33;9.20;;;10.70;99.90;;;;;;5048446;28;20446;-73
2021/12/16 11:30:30;;;;;;;12.63;8.57;;;10.80;99.90;;;;;;5046815;28;20455;-73
2021/12/16 11:33:24;;;;;;;14.43;10.30;;;10.70;99.90;;;;;;5044503;28;20797;-73
2021/12/16 11:36:12;;;;;;;16.57;10.00;;;10.60;99.90;;;;;;5045014;28;20986;-73
2021/12/16 11:39:01;;;;;;;16.57;12.27;;;10.30;99.90;;;;;;5047628;28;20553;-72
2021/12/16 11:41:49;;;;;;;71.60;29.30;;;10.20;99.90;;;;;;5050889;28;20527;-73
2021/12/16 11:44:43;;;;;;;19.60;12.23;;;10.10;99.90;;;;;;5050251;28;20447;-74
2021/12/16 11:47:30;;;;;;;14.03;10.67;;;10.00;99.90;;;;;;5047412;28;20475;-73
2021/12/16 11:50:17;;;;;;;16.23;12.37;;;9.90;99.90;;;;;;5050002;28;20459;-73
2021/12/16 11:53:03;;;;;;;15.83;11.80;;;9.80;99.90;;;;;;5044354;28;20882;-73
2021/12/16 11:55:50;;;;;;;16.60;12.23;;;9.80;99.90;;;;;;5050882;28;20455;-73
2021/12/16 11:58:36;;;;;;;17.27;11.90;;;9.80;99.90;;;;;;5051290;28;21016;-73
2021/12/16 12:01:24;;;;;;;19.92;13.05;;;9.80;99.90;;;;;;5049922;28;20538;-73
2021/12/16 12:04:11;;;;;;;14.43;11.40;;;9.80;99.90;;;;;;5044408;28;20215;-73
2021/12/16 12:06:59;;;;;;;18.83;11.73;;;10.00;99.90;;;;;;5041324;28;20514;-73
2021/12/16 12:09:48;;;;;;;19.63;12.50;;;10.10;99.90;;;;;;5046351;28;20957;-73
2021/12/16 12:12:42;;;;;;;22.87;14.93;;;10.30;99.90;;;;;;5049181;28;20585;-73
2021/12/16 12:15:27;;;;;;;21.17;14.90;;;10.30;99.90;;;;;;5051377;28;20797;-73
2021/12/16 12:18:13;;;;;;;22.13;15.90;;;10.50;99.90;;;;;;5048286;28;20547;-72
2021/12/16 12:21:30;;;;;;;24.90;16.80;;;10.70;99.90;;;;;;5044099;28;20420;-73
2021/12/16 12:24:19;;;;;;;23.97;16.83;;;10.90;99.90;;;;;;5046059;28;20462;-73
2021/12/16 12:27:09;;;;;;;22.80;15.50;;;11.00;99.90;;;;;;5043579;28;20471;-73
2021/12/16 12:29:56;;;;;;;18.10;14.03;;;11.00;99.90;;;;;;5050023;28;20443;-73
2021/12/16 12:32:45;;;;;;;22.60;15.00;;;11.00;99.90;;;;;;5051058;28;20703;-73
2021/12/16 12:35:31;;;;;;;21.40;15.60;;;10.90;99.90;;;;;;5050579;28;20529;-73
2021/12/16 12:38:16;;;;;;;22.80;15.17;;;10.80;99.90;;;;;;5047989;28;20478;-73
2021/12/16 12:41:04;;;;;;;21.97;15.70;;;10.70;99.90;;;;;;5044910;28;20447;-73
2021/12/16 12:43:51;;;;;;;20.03;14.93;;;10.60;99.90;;;;;;5050596;28;20795;-73
2021/12/16 12:46:39;;;;;;;19.90;15.03;;;10.50;99.90;;;;;;5050785;28;20479;-73
2021/12/16 12:49:28;;;;;;;22.50;14.90;;;10.40;99.90;;;;;;5050264;28;20572;-73
2021/12/16 12:52:17;;;;;;;25.93;17.60;;;10.40;99.90;;;;;;5044644;28;20443;-73
2021/12/16 12:55:10;;;;;;;23.23;16.07;;;10.40;99.90;;;;;;5047653;28;20449;-74
2021/12/16 12:58:05;;;;;;;22.40;15.30;;;10.30;99.90;;;;;;5048708;28;20572;-73
2021/12/16 13:00:54;;;;;;;21.27;15.57;;;10.30;99.90;;;;;;5050988;28;20447;-73
2021/12/16 13:03:41;;;;;;;22.90;14.70;;;10.20;99.90;;;;;;5049935;28;20283;-73
2021/12/16 13:06:27;;;;;;;21.57;13.70;;;10.20;99.90;;;;;;5048584;28;20471;-73
2021/12/16 13:09:23;;;;;;;17.87;13.00;;;10.20;99.90;;;;;;5042424;28;20983;-73
2021/12/16 13:12:41;;;;;;;19.27;12.90;;;10.20;99.90;;;;;;5037794;28;20453;-73
2021/12/16 13:15:39;;;;;;;17.40;12.00;;;10.20;99.90;;;;;;5048867;28;20402;-73
2021/12/16 13:25:07;;;;;;;14.53;12.13;;;10.20;99.90;;;;;;5053295;28;20979;-73
2021/12/16 13:28:01;;;;;;;20.03;13.40;;;10.20;99.90;;;;;;5058724;28;20467;-73
2021/12/16 13:30:57;;;;;;;19.60;13.70;;;10.20;99.90;;;;;;5051433;28;20451;-73
2021/12/16 13:33:53;;;;;;;17.53;12.77;;;10.20;99.90;;;;;;5052707;28;20447;-73
2021/12/16 13:36:44;;;;;;;16.30;13.10;;;10.20;99.90;;;;;;5050906;28;20444;-74
2021/12/16 13:39:30;;;;;;;17.77;13.70;;;10.20;99.90;;;;;;5053121;28;20658;-73
2021/12/16 13:42:16;;;;;;;14.13;11.47;;;10.20;99.90;;;;;;5053589;28;20541;-73
2021/12/16 13:45:07;;;;;;;15.40;11.20;;;10.20;99.90;;;;;;5052698;28;20415;-73
2021/12/16 13:48:19;;;;;;;19.93;12.60;;;10.20;99.90;;;;;;5052145;28;20482;-73
2021/12/16 14:01:03;;;;;;;17.87;12.47;;;10.00;99.90;;;;;;5065541;28;20479;-73
2021/12/16 14:03:47;;;;;;;14.43;11.10;;;10.00;99.90;;;;;;5049360;28;20792;-73
2021/12/16 14:06:50;;;;;;;20.10;11.60;;;10.00;99.90;;;;;;5047302;28;20467;-73
2021/12/16 14:09:36;;;;;;;18.47;12.07;;;10.10;99.90;;;;;;5044479;28;20478;-73
2021/12/16 14:15:59;;;;;;;20.20;12.33;;;10.10;99.90;;;;;;4987558;28;20455;-73
2021/12/16 14:25:24;;;;;;;15.43;12.17;;;10.10;99.90;;;;;;5038919;28;20460;-73
2021/12/16 14:37:29;;;;;;;20.07;12.43;;;9.80;99.90;;;;;;5045994;28;20443;-73
2021/12/16 14:40:37;;;;;;;22.00;10.70;;;9.90;99.90;;;;;;5058228;28;20448;-73
2021/12/16 14:43:36;;;;;;;16.47;12.80;;;10.00;99.90;;;;;;5056846;28;20412;-73
2021/12/16 14:46:25;;;;;;;17.50;11.63;;;10.00;99.90;;;;;;5053201;28;20433;-73
2021/12/16 14:49:10;;;;;;;15.30;11.13;;;10.00;99.90;;;;;;5052662;28;20487;-73
2021/12/16 14:51:59;;;;;;;15.80;12.27;;;10.00;99.90;;;;;;5053395;28;20506;-73
2021/12/16 14:54:49;;;;;;;13.50;10.30;;;9.90;99.90;;;;;;5051908;28;20471;-71
2021/12/16 14:57:37;;;;;;;18.67;10.90;;;10.00;99.90;;;;;;5055993;28;20520;-72
2021/12/16 15:00:29;;;;;;;11.93;9.07;;;9.90;99.90;;;;;;5048007;28;20979;-73
2021/12/16 15:03:17;;;;;;;16.47;9.53;;;10.00;99.90;;;;;;5066805;28;20456;-73
2021/12/16 15:06:07;;;;;;;21.47;9.60;;;9.90;99.90;;;;;;5040320;28;20456;-73
2021/12/16 15:09:08;;;;;;;13.77;10.00;;;9.90;99.90;;;;;;5032765;28;20935;-73
2021/12/16 15:12:00;;;;;;;16.13;8.90;;;9.90;99.90;;;;;;5032400;28;20424;-73
2021/12/16 15:15:04;;;;;;;19.50;10.03;;;9.80;99.90;;;;;;5033355;28;20542;-73
2021/12/16 15:36:48;;;;;;;16.60;9.90;;;9.60;99.90;;;;;;5054155;28;20866;-72
2021/12/16 15:39:47;;;;;;;13.25;9.35;;;9.50;99.90;;;;;;5058569;28;20418;-72
2021/12/16 15:45:42;;;;;;;13.18;9.38;;;9.40;99.90;;;;;;5040793;28;20530;-72
2021/12/16 15:48:30;;;;;;;17.50;9.87;;;9.40;99.90;;;;;;5054120;28;20266;-72
2021/12/16 15:51:16;;;;;;;12.93;9.93;;;9.40;99.90;;;;;;5050298;28;20549;-72
2021/12/16 15:54:04;;;;;;;14.50;10.00;;;9.40;99.90;;;;;;5043730;28;20449;-73
2021/12/16 15:56:52;;;;;;;14.50;9.47;;;9.30;99.90;;;;;;5063327;28;20482;-72
2021/12/16 16:02:37;;;;;;;17.80;10.30;;;9.30;99.90;;;;;;5071674;28;20790;-73
2021/12/16 16:05:23;;;;;;;17.80;10.10;;;9.20;99.90;;;;;;5049344;28;20799;-73
2021/12/16 16:08:12;;;;;;;15.37;10.10;;;9.20;99.90;;;;;;5052232;28;20830;-73
2021/12/16 16:11:00;;;;;;;12.20;9.50;;;9.30;99.90;;;;;;5038659;28;20434;-72
2021/12/16 16:13:52;;;;;;;15.63;8.60;;;9.20;99.90;;;;;;5037963;28;20933;-72
2021/12/16 16:16:44;;;;;;;14.90;9.50;;;9.20;99.90;;;;;;5052194;28;20447;-72
2021/12/16 16:19:34;;;;;;;14.93;10.07;;;9.10;99.90;;;;;;5052855;28;20569;-72
2021/12/16 16:22:21;;;;;;;15.90;9.40;;;9.00;99.90;;;;;;5053612;28;20933;-73
2021/12/16 16:25:08;;;;;;;20.43;10.83;;;9.00;99.90;;;;;;5049896;28;20439;-72
2021/12/16 16:27:54;;;;;;;14.27;10.03;;;9.00;99.90;;;;;;5057516;28;20813;-73
2021/12/16 16:30:42;;;;;;;13.97;9.43;;;9.00;99.90;;;;;;5057738;28;20562;-73
2021/12/16 16:33:32;;;;;;;12.27;8.70;;;8.90;99.90;;;;;;5040924;28;20826;-74
2021/12/16 16:36:22;;;;;;;14.27;9.98;;;8.90;99.90;;;;;;5049384;28;20524;-73
2021/12/16 16:39:10;;;;;;;17.80;10.95;;;8.70;99.90;;;;;;5037598;28;20232;-73
2021/12/16 16:42:00;;;;;;;17.00;10.75;;;8.60;99.90;;;;;;5050254;28;20212;-73
2021/12/16 16:44:48;;;;;;;13.57;9.45;;;8.50;99.90;;;;;;5036259;28;20219;-73
2021/12/16 16:47:46;;;;;;;12.90;10.27;;;8.50;99.90;;;;;;5039295;28;20362;-73
2021/12/16 16:50:33;;;;;;;14.30;10.00;;;8.30;99.90;;;;;;5056865;28;20528;-73
2021/12/16 16:53:28;;;;;;;17.35;11.05;;;8.20;99.90;;;;;;5037512;28;20578;-73
2021/12/16 16:56:14;;;;;;;14.52;9.10;;;8.10;99.90;;;;;;5051309;28;20207;-73
2021/12/16 16:59:05;;;;;;;22.88;12.40;;;8.00;99.90;;;;;;5055177;28;20237;-74
2021/12/16 17:01:51;;;;;;;17.55;9.45;;;7.90;99.90;;;;;;5065750;28;20195;-73
2021/12/16 17:04:38;;;;;;;13.55;9.20;;;7.80;99.90;;;;;;5047345;28;20713;-73
2021/12/16 17:07:24;;;;;;;15.32;9.70;;;7.80;99.90;;;;;;5066379;28;20302;-73
2021/12/16 17:10:25;;;;;;;11.63;8.65;;;7.60;99.90;;;;;;5045484;28;20205;-73
2021/12/16 17:13:18;;;;;;;13.68;9.02;;;7.50;99.90;;;;;;5036791;28;20208;-74
2021/12/16 17:19:09;;;;;;;12.07;8.00;;;7.30;99.90;;;;;;5054150;28;20213;-73
2021/12/16 17:21:56;;;;;;;12.27;9.23;;;7.30;99.90;;;;;;5052521;28;20267;-73